Time;durP1;ratioP1;P1;durP2;ratioP2;P2;SDS_P1;SDS_P2;PMS_P1;PMS_P2;Temp;Humidity;BMP_temperature;BMP_pressure;BME280_temperature;BME280_humidity;BME280_pressure;Samples;Min_cycle;Max_cycle;Signal;HPM_P1;HPM_P2
2023/03/26 00:00:49;;;;;;;0.00;0.00;;;8.00;99.90;;;;;;5039608;28;20076;-86
2023/03/26 00:03:17;;;;;;;0.00;0.00;;;8.00;99.90;;;;;;5057344;28;20121;-86
2023/03/26 00:05:45;;;;;;;0.10;0.05;;;8.00;99.90;;;;;;5039646;28;20056;-86
2023/03/26 00:08:11;;;;;;;0.40;0.25;;;8.00;99.90;;;;;;5039976;28;20053;-86
2023/03/26 00:10:41;;;;;;;0.00;0.00;;;8.00;99.90;;;;;;5040295;28;20098;-86
2023/03/26 00:13:07;;;;;;;0.00;0.00;;;8.00;99.90;;;;;;5057682;28;20419;-86
2023/03/26 00:15:36;;;;;;;0.00;0.00;;;8.00;99.90;;;;;;5057327;28;20136;-85
2023/03/26 00:18:02;;;;;;;0.80;0.55;;;7.90;99.90;;;;;;5058451;28;20135;-85
2023/03/26 00:20:37;;;;;;;1.17;0.32;;;7.90;99.90;;;;;;5041370;28;20134;-87
2023/03/26 00:23:03;;;;;;;0.00;0.00;;;7.90;99.90;;;;;;5023483;28;20049;-86
2023/03/26 00:25:30;;;;;;;0.00;0.00;;;7.90;99.90;;;;;;5055454;28;20052;-86
2023/03/26 00:27:57;;;;;;;0.00;0.00;;;7.90;99.90;;;;;;5055350;28;20507;-86
2023/03/26 00:30:23;;;;;;;0.55;0.47;;;7.80;99.90;;;;;;5056198;28;20412;-86
2023/03/26 00:32:49;;;;;;;0.00;0.00;;;7.90;99.90;;;;;;5039430;28;20106;-86
2023/03/26 00:35:14;;;;;;;0.00;0.00;;;7.80;99.90;;;;;;5056177;28;20041;-86
2023/03/26 00:37:42;;;;;;;0.00;0.00;;;7.80;99.90;;;;;;5056541;28;20049;-86
2023/03/26 00:40:09;;;;;;;0.00;0.00;;;7.80;99.90;;;;;;5056486;28;20053;-86
2023/03/26 00:42:37;;;;;;;0.00;0.00;;;7.70;99.90;;;;;;5055941;28;20044;-86
2023/03/26 00:45:06;;;;;;;0.00;0.00;;;7.70;99.90;;;;;;5055078;28;20045;-87
2023/03/26 00:47:33;;;;;;;0.00;0.00;;;7.70;99.90;;;;;;5038284;28;20045;-86
2023/03/26 00:49:59;;;;;;;0.00;0.00;;;7.70;99.90;;;;;;5055385;28;20495;-87
2023/03/26 00:52:27;;;;;;;0.10;0.10;;;7.70;99.90;;;;;;5055190;28;20041;-86
2023/03/26 00:54:53;;;;;;;0.28;0.10;;;7.60;99.90;;;;;;5055057;28;20049;-85
2023/03/26 00:57:20;;;;;;;0.00;0.00;;;7.60;99.90;;;;;;5038328;28;20480;-86
2023/03/26 00:59:47;;;;;;;0.00;0.00;;;7.50;99.70;;;;;;5054536;28;20045;-86
2023/03/26 01:02:16;;;;;;;0.20;0.20;;;7.40;99.90;;;;;;5038371;28;20049;-85
2023/03/26 01:04:47;;;;;;;0.00;0.00;;;7.40;99.90;;;;;;5055715;28;20045;-86
2023/03/26 01:07:20;;;;;;;0.00;0.00;;;7.40;99.90;;;;;;5055031;28;20044;-85
2023/03/26 01:09:49;;;;;;;0.00;0.00;;;7.40;99.90;;;;;;5054804;28;20132;-86
2023/03/26 01:12:19;;;;;;;0.25;0.25;;;7.30;99.90;;;;;;5038908;28;20480;-85
2023/03/26 01:14:47;;;;;;;0.00;0.00;;;7.30;99.90;;;;;;5055455;28;20135;-86
2023/03/26 01:17:14;;;;;;;0.00;0.00;;;7.20;99.90;;;;;;5054776;28;20095;-85
2023/03/26 01:19:55;;;;;;;0.00;0.00;;;7.30;99.90;;;;;;5038461;28;20079;-86
2023/03/26 01:22:26;;;;;;;0.00;0.00;;;7.30;99.90;;;;;;5038388;28;20079;-86
2023/03/26 01:24:55;;;;;;;0.00;0.00;;;7.30;99.90;;;;;;5038820;28;20072;-86
2023/03/26 01:27:49;;;;;;;0.00;0.00;;;7.30;99.90;;;;;;5022099;28;20571;-86
2023/03/26 01:30:36;;;;;;;1.08;0.00;;;7.30;99.90;;;;;;5054452;28;20049;-86
2023/03/26 01:33:28;;;;;;;0.00;0.00;;;7.30;99.90;;;;;;5038468;28;20480;-85
2023/03/26 01:36:33;;;;;;;0.00;0.00;;;7.30;99.90;;;;;;5054804;28;20049;-85
2023/03/26 01:39:08;;;;;;;0.00;0.00;;;7.30;99.90;;;;;;5031877;28;20061;-86
2023/03/26 01:41:50;;;;;;;0.00;0.00;;;7.30;99.90;;;;;;5054808;28;20041;-86
2023/03/26 01:44:31;;;;;;;0.00;0.00;;;7.30;99.90;;;;;;5055326;28;20094;-86
2023/03/26 01:46:59;;;;;;;0.00;0.00;;;7.30;99.90;;;;;;5055034;28;20443;-86
2023/03/26 01:49:27;;;;;;;0.00;0.00;;;7.30;99.90;;;;;;5037834;28;20048;-86
2023/03/26 01:51:56;;;;;;;0.00;0.00;;;7.30;99.90;;;;;;5037413;28;20045;-86
2023/03/26 01:54:25;;;;;;;0.00;0.00;;;7.40;99.90;;;;;;5055126;28;20365;-87
2023/03/26 01:57:17;;;;;;;0.10;0.10;;;7.40;99.90;;;;;;5054014;28;20143;-86
2023/03/26 02:00:11;;;;;;;0.00;0.00;;;7.40;99.90;;;;;;5054527;28;20056;-86
2023/03/26 02:02:43;;;;;;;0.00;0.00;;;7.40;99.90;;;;;;5033800;28;20095;-86
2023/03/26 02:05:19;;;;;;;0.00;0.00;;;7.40;99.90;;;;;;5053882;28;20053;-86
2023/03/26 02:08:15;;;;;;;0.00;0.00;;;7.40;99.90;;;;;;5037673;28;20068;-86
2023/03/26 02:10:45;;;;;;;1.67;0.47;;;7.40;99.90;;;;;;5054570;28;20040;-86
2023/03/26 02:13:12;;;;;;;0.00;0.00;;;7.50;99.90;;;;;;5053686;28;20104;-86
2023/03/26 02:15:40;;;;;;;0.00;0.00;;;7.50;99.90;;;;;;5053121;28;20554;-86
2023/03/26 02:18:09;;;;;;;0.00;0.00;;;7.50;99.90;;;;;;5036716;28;20111;-86
2023/03/26 02:20:36;;;;;;;0.00;0.00;;;7.50;99.90;;;;;;5052943;28;20408;-86
2023/03/26 02:23:02;;;;;;;0.47;0.25;;;7.50;99.90;;;;;;5037058;28;20440;-86
2023/03/26 02:25:28;;;;;;;0.00;0.00;;;7.50;99.90;;;;;;5053128;28;20059;-86
2023/03/26 02:27:54;;;;;;;6.20;0.52;;;7.50;99.90;;;;;;5020161;28;20071;-87
2023/03/26 02:30:24;;;;;;;0.00;0.00;;;7.50;99.90;;;;;;5054010;28;20461;-86
2023/03/26 02:32:52;;;;;;;0.00;0.00;;;7.40;99.90;;;;;;5036657;28;20049;-86
2023/03/26 02:35:20;;;;;;;0.00;0.00;;;7.30;99.90;;;;;;5053252;28;20044;-86
2023/03/26 02:37:49;;;;;;;0.00;0.00;;;7.20;99.90;;;;;;5037451;28;20045;-87
2023/03/26 02:40:17;;;;;;;0.00;0.00;;;7.20;99.90;;;;;;5021864;28;20056;-86
2023/03/26 02:42:43;;;;;;;0.00;0.00;;;7.10;99.90;;;;;;5036624;28;20055;-85
2023/03/26 02:45:10;;;;;;;0.00;0.00;;;7.00;99.90;;;;;;5037583;28;20040;-86
2023/03/26 02:47:36;;;;;;;0.00;0.00;;;7.00;99.90;;;;;;5036680;28;20547;-86
2023/03/26 02:50:03;;;;;;;0.00;0.00;;;7.10;99.90;;;;;;5004101;28;20132;-86
2023/03/26 02:52:29;;;;;;;0.00;0.00;;;7.00;99.90;;;;;;5021070;28;20243;-86
2023/03/26 02:54:55;;;;;;;0.00;0.00;;;7.00;99.90;;;;;;5037645;28;20523;-86
2023/03/26 02:57:21;;;;;;;0.00;0.00;;;7.00;99.90;;;;;;5037424;28;20047;-86
2023/03/26 02:59:49;;;;;;;0.00;0.00;;;6.90;99.90;;;;;;5053576;28;20045;-86
2023/03/26 03:02:15;;;;;;;0.00;0.00;;;6.90;99.90;;;;;;5020885;28;20119;-87
2023/03/26 03:04:41;;;;;;;0.00;0.00;;;6.90;99.90;;;;;;5020570;28;20048;-86
2023/03/26 03:07:07;;;;;;;0.10;0.10;;;6.90;99.90;;;;;;5035801;28;20575;-86
2023/03/26 03:09:33;;;;;;;0.00;0.00;;;6.90;99.90;;;;;;5036101;28;20052;-87
2023/03/26 03:11:59;;;;;;;0.00;0.00;;;7.00;99.90;;;;;;5036585;28;20053;-86
2023/03/26 03:14:25;;;;;;;0.00;0.00;;;6.90;99.90;;;;;;5053929;28;20048;-86
2023/03/26 03:16:52;;;;;;;0.00;0.00;;;6.90;99.90;;;;;;5035915;28;20045;-87
2023/03/26 03:19:18;;;;;;;0.00;0.00;;;6.90;99.90;;;;;;5020054;28;20045;-86
2023/03/26 03:21:44;;;;;;;0.00;0.00;;;6.90;99.90;;;;;;5054117;28;20048;-86
2023/03/26 03:24:10;;;;;;;0.00;0.00;;;6.80;99.90;;;;;;5023658;28;20049;-86
2023/03/26 03:26:36;;;;;;;0.00;0.00;;;6.80;99.90;;;;;;5056816;28;20413;-86
2023/03/26 03:29:02;;;;;;;0.00;0.00;;;6.70;99.90;;;;;;5023530;28;20059;-86
2023/03/26 03:31:27;;;;;;;0.00;0.00;;;6.70;99.90;;;;;;5040362;28;20056;-86
2023/03/26 03:33:53;;;;;;;0.00;0.00;;;6.70;99.90;;;;;;5024243;28;20040;-86
2023/03/26 03:36:26;;;;;;;0.00;0.00;;;6.70;99.90;;;;;;5041060;28;20376;-86
2023/03/26 03:38:52;;;;;;;0.00;0.00;;;6.70;99.90;;;;;;5040745;28;20071;-86
2023/03/26 03:41:17;;;;;;;3.65;0.17;;;6.70;99.90;;;;;;5057034;28;20485;-87
2023/03/26 03:43:44;;;;;;;0.00;0.00;;;6.60;99.90;;;;;;5041385;28;20044;-86
2023/03/26 03:46:10;;;;;;;0.00;0.00;;;6.50;99.90;;;;;;5024126;28;20076;-86
2023/03/26 03:48:38;;;;;;;0.08;0.08;;;6.50;99.90;;;;;;5040954;28;20076;-86
2023/03/26 03:51:05;;;;;;;0.00;0.00;;;6.40;99.90;;;;;;5040212;28;20045;-87
2023/03/26 03:53:31;;;;;;;0.00;0.00;;;6.40;99.90;;;;;;5039936;28;20457;-86
2023/03/26 03:55:57;;;;;;;0.00;0.00;;;6.40;99.90;;;;;;5040360;28;20136;-86
2023/03/26 03:58:26;;;;;;;0.10;0.00;;;6.30;99.90;;;;;;5056170;28;20091;-86
2023/03/26 04:00:59;;;;;;;0.00;0.00;;;6.30;99.90;;;;;;5056130;28;20489;-86
2023/03/26 04:03:29;;;;;;;0.00;0.00;;;6.30;99.90;;;;;;5024329;28;20049;-86
2023/03/26 04:05:55;;;;;;;0.00;0.00;;;6.30;99.90;;;;;;5055923;28;20044;-86
2023/03/26 04:08:24;;;;;;;0.00;0.00;;;6.40;99.90;;;;;;5039509;28;20041;-87
2023/03/26 04:10:50;;;;;;;0.00;0.00;;;6.40;99.90;;;;;;5039050;28;20053;-86
2023/03/26 04:13:16;;;;;;;0.00;0.00;;;6.50;99.90;;;;;;5055844;28;20053;-86
2023/03/26 04:15:43;;;;;;;0.00;0.00;;;6.50;99.90;;;;;;5039733;28;20416;-87
2023/03/26 04:18:10;;;;;;;0.00;0.00;;;6.50;99.90;;;;;;5040009;28;20550;-87
2023/03/26 04:20:46;;;;;;;0.00;0.00;;;6.50;99.90;;;;;;5039598;28;20060;-87
2023/03/26 04:23:13;;;;;;;4.13;0.80;;;6.60;99.90;;;;;;5040313;28;20106;-86
2023/03/26 04:25:47;;;;;;;0.00;0.00;;;6.60;99.90;;;;;;5057134;28;20044;-87
2023/03/26 04:28:27;;;;;;;0.00;0.00;;;6.60;99.90;;;;;;5039738;28;20136;-86
2023/03/26 04:30:59;;;;;;;0.00;0.00;;;6.60;99.90;;;;;;5056390;28;20053;-87
2023/03/26 04:33:28;;;;;;;0.00;0.00;;;6.70;99.90;;;;;;5055530;28;20041;-87
2023/03/26 04:35:55;;;;;;;0.00;0.00;;;6.70;99.90;;;;;;5040226;28;20052;-86
2023/03/26 04:38:21;;;;;;;0.20;0.20;;;6.70;99.90;;;;;;5039933;28;20059;-87
2023/03/26 04:40:47;;;;;;;0.00;0.00;;;6.60;99.90;;;;;;5024250;28;20045;-86
2023/03/26 04:43:17;;;;;;;0.00;0.00;;;6.70;99.90;;;;;;5036536;28;20056;-86
2023/03/26 04:45:44;;;;;;;0.00;0.00;;;6.70;99.90;;;;;;5059481;28;20049;-86
2023/03/26 04:48:14;;;;;;;0.00;0.00;;;6.80;99.90;;;;;;5061707;28;20461;-86
2023/03/26 04:50:44;;;;;;;0.00;0.00;;;6.80;99.90;;;;;;5056693;28;20041;-86
2023/03/26 04:53:15;;;;;;;0.00;0.00;;;6.80;99.90;;;;;;5039317;28;20044;-87
2023/03/26 04:55:48;;;;;;;0.00;0.00;;;6.80;99.90;;;;;;5056113;28;20041;-87
2023/03/26 04:58:14;;;;;;;0.00;0.00;;;6.80;99.90;;;;;;5056706;28;20048;-87
2023/03/26 05:00:41;;;;;;;0.00;0.00;;;6.90;99.90;;;;;;5038845;28;20044;-87
2023/03/26 05:03:12;;;;;;;0.00;0.00;;;6.90;99.90;;;;;;5055701;28;20053;-86
2023/03/26 05:05:42;;;;;;;0.00;0.00;;;6.90;99.90;;;;;;5055766;28;20041;-87
2023/03/26 05:08:08;;;;;;;0.00;0.00;;;6.90;99.90;;;;;;5039234;28;20048;-86
2023/03/26 05:10:34;;;;;;;0.00;0.00;;;6.90;99.90;;;;;;5022581;28;20045;-86
2023/03/26 05:13:00;;;;;;;0.00;0.00;;;6.90;99.90;;;;;;5038444;28;20087;-87
2023/03/26 05:15:26;;;;;;;0.00;0.00;;;7.00;99.90;;;;;;5055495;28;20068;-87
2023/03/26 05:17:54;;;;;;;0.00;0.00;;;7.00;99.90;;;;;;5022741;28;20358;-87
2023/03/26 05:20:29;;;;;;;0.00;0.00;;;7.00;99.90;;;;;;5022597;28;20481;-87
2023/03/26 05:22:55;;;;;;;0.00;0.00;;;7.00;99.90;;;;;;5056188;28;20409;-87
2023/03/26 05:25:23;;;;;;;0.00;0.00;;;7.10;99.90;;;;;;5038681;28;20045;-87
2023/03/26 05:27:49;;;;;;;0.00;0.00;;;7.00;99.90;;;;;;5038750;28;20489;-87
2023/03/26 05:30:18;;;;;;;0.00;0.00;;;7.10;99.90;;;;;;5023070;28;20060;-86
2023/03/26 05:32:43;;;;;;;0.00;0.00;;;7.10;99.90;;;;;;5054419;28;20096;-87
2023/03/26 05:35:09;;;;;;;0.00;0.00;;;7.10;99.90;;;;;;5005504;28;20084;-86
2023/03/26 05:37:37;;;;;;;0.00;0.00;;;7.00;99.90;;;;;;5054634;28;20068;-87
2023/03/26 05:40:10;;;;;;;0.00;0.00;;;7.00;99.90;;;;;;5021732;28;20437;-86
2023/03/26 05:42:36;;;;;;;0.00;0.00;;;7.00;99.90;;;;;;5022995;28;20053;-87
2023/03/26 05:45:04;;;;;;;0.00;0.00;;;7.10;99.90;;;;;;5004723;28;20060;-86
2023/03/26 05:47:30;;;;;;;0.00;0.00;;;7.10;99.90;;;;;;5037815;28;20041;-87
2023/03/26 05:49:58;;;;;;;0.00;0.00;;;7.10;99.90;;;;;;5021785;28;20514;-86
2023/03/26 05:52:24;;;;;;;0.00;0.00;;;7.00;99.90;;;;;;5054496;28;20052;-87
2023/03/26 05:54:50;;;;;;;0.00;0.00;;;7.10;99.90;;;;;;5038919;28;20052;-87
2023/03/26 05:57:19;;;;;;;0.22;0.22;;;7.10;99.90;;;;;;5038690;28;20431;-86
2023/03/26 05:59:45;;;;;;;0.00;0.00;;;7.20;99.90;;;;;;5054013;28;20044;-86
2023/03/26 06:02:10;;;;;;;0.00;0.00;;;7.20;99.90;;;;;;5054220;28;20128;-86
2023/03/26 06:04:41;;;;;;;0.10;0.00;;;7.20;99.90;;;;;;5021274;28;20088;-86
2023/03/26 06:07:11;;;;;;;0.00;0.00;;;7.20;99.90;;;;;;5038669;28;20037;-86
2023/03/26 06:09:38;;;;;;;0.00;0.00;;;7.20;99.90;;;;;;5037739;28;20053;-87
2023/03/26 06:12:10;;;;;;;0.00;0.00;;;7.30;99.90;;;;;;5055034;28;20084;-86
2023/03/26 06:14:36;;;;;;;0.00;0.00;;;7.20;99.90;;;;;;5037757;28;20427;-87
2023/03/26 06:17:03;;;;;;;0.00;0.00;;;7.30;99.90;;;;;;5054494;28;20111;-87
2023/03/26 06:19:31;;;;;;;6.32;1.17;;;7.40;99.90;;;;;;5037504;28;20099;-86
2023/03/26 06:21:57;;;;;;;0.00;0.00;;;7.30;99.90;;;;;;5021447;28;20045;-86
2023/03/26 06:24:23;;;;;;;0.00;0.00;;;7.30;99.90;;;;;;5037426;28;20124;-87
2023/03/26 06:26:51;;;;;;;0.00;0.00;;;7.30;99.90;;;;;;5053693;28;20084;-87
2023/03/26 06:29:17;;;;;;;0.00;0.00;;;7.30;99.90;;;;;;5021160;28;20055;-87
2023/03/26 06:31:45;;;;;;;2.20;1.15;;;7.40;99.90;;;;;;5037309;28;20057;-87
2023/03/26 06:34:11;;;;;;;0.00;0.00;;;7.40;99.90;;;;;;5053314;28;20049;-86
2023/03/26 06:36:37;;;;;;;0.47;0.20;;;7.40;99.90;;;;;;5020611;28;20104;-87
2023/03/26 06:39:03;;;;;;;0.52;0.15;;;7.40;99.90;;;;;;5037834;28;20056;-85
2023/03/26 06:41:29;;;;;;;0.00;0.00;;;7.40;99.90;;;;;;5054346;28;20037;-86
2023/03/26 06:43:55;;;;;;;0.00;0.00;;;7.40;99.90;;;;;;5053862;28;20130;-86
2023/03/26 06:46:25;;;;;;;0.00;0.00;;;7.40;99.90;;;;;;5020928;28;20048;-86
2023/03/26 06:48:50;;;;;;;0.00;0.00;;;7.40;99.90;;;;;;5037208;28;20037;-87
2023/03/26 06:51:16;;;;;;;0.08;0.00;;;7.40;99.90;;;;;;5020710;28;20056;-87
2023/03/26 06:53:42;;;;;;;0.00;0.00;;;7.50;99.90;;;;;;5053942;28;20060;-87
2023/03/26 06:56:08;;;;;;;0.00;0.00;;;7.50;99.90;;;;;;5036905;28;20083;-86
2023/03/26 06:58:34;;;;;;;0.15;0.15;;;7.50;99.90;;;;;;5021460;28;20049;-87
2023/03/26 07:01:00;;;;;;;0.00;0.00;;;7.50;99.90;;;;;;5020358;28;20045;-86
2023/03/26 07:03:25;;;;;;;0.00;0.00;;;7.50;99.90;;;;;;5037594;28;20084;-86
2023/03/26 07:05:51;;;;;;;0.00;0.00;;;7.50;99.90;;;;;;5037716;28;20047;-86
2023/03/26 07:08:17;;;;;;;0.00;0.00;;;7.60;99.90;;;;;;5004001;28;20045;-86
2023/03/26 07:10:43;;;;;;;0.00;0.00;;;7.60;99.90;;;;;;5022388;28;20063;-86
2023/03/26 07:13:09;;;;;;;0.35;0.35;;;7.70;99.90;;;;;;5036517;28;20083;-86
2023/03/26 07:15:35;;;;;;;0.00;0.00;;;7.70;99.90;;;;;;5036533;28;20088;-87
2023/03/26 07:18:00;;;;;;;0.00;0.00;;;7.80;99.90;;;;;;5036907;28;20477;-87
2023/03/26 07:20:29;;;;;;;0.00;0.00;;;7.90;99.90;;;;;;5020286;28;20103;-87
2023/03/26 07:22:55;;;;;;;0.00;0.00;;;7.90;99.90;;;;;;5036304;28;20053;-87
2023/03/26 07:25:23;;;;;;;0.00;0.00;;;8.00;99.90;;;;;;5053656;28;20090;-86
2023/03/26 07:28:02;;;;;;;2.10;0.43;;;8.00;99.90;;;;;;5021706;28;20045;-87
2023/03/26 07:30:56;;;;;;;0.00;0.00;;;8.10;99.90;;;;;;5036687;28;20045;-86
2023/03/26 07:33:24;;;;;;;0.00;0.00;;;8.10;99.90;;;;;;5054780;28;20037;-87
2023/03/26 07:35:50;;;;;;;0.00;0.00;;;8.20;99.90;;;;;;5053075;28;20131;-84
2023/03/26 07:38:42;;;;;;;7.47;0.32;;;8.20;98.50;;;;;;5036597;28;20041;-85
2023/03/26 07:41:22;;;;;;;0.10;0.10;;;8.20;95.90;;;;;;5046911;28;20091;-84
2023/03/26 07:44:02;;;;;;;0.15;0.15;;;8.20;95.40;;;;;;5052862;28;20056;-84
2023/03/26 07:46:30;;;;;;;0.38;0.38;;;8.20;92.20;;;;;;5053275;28;20389;-84
2023/03/26 07:49:00;;;;;;;1.25;0.45;;;8.20;91.90;;;;;;5052320;28;20048;-82
2023/03/26 07:51:27;;;;;;;0.00;0.00;;;8.30;91.20;;;;;;5036278;28;20134;-86
2023/03/26 07:53:53;;;;;;;0.20;0.20;;;8.30;82.40;;;;;;5036757;28;20187;-84
2023/03/26 07:56:30;;;;;;;0.00;0.00;;;8.30;86.50;;;;;;5036605;28;20048;-82
2023/03/26 07:59:08;;;;;;;0.10;0.08;;;8.40;83.70;;;;;;5035506;28;20484;-87
2023/03/26 08:01:55;;;;;;;0.00;0.00;;;8.40;85.20;;;;;;5036476;28;20041;-86
2023/03/26 08:04:45;;;;;;;0.00;0.00;;;8.40;74.20;;;;;;5036262;28;20538;-86
2023/03/26 08:07:38;;;;;;;0.00;0.00;;;8.40;75.00;;;;;;5053760;28;20064;-85
2023/03/26 08:10:31;;;;;;;0.40;0.40;;;8.50;76.30;;;;;;5040686;28;20095;-86
2023/03/26 08:13:02;;;;;;;0.55;0.55;;;8.50;74.00;;;;;;5057029;28;20128;-86
2023/03/26 08:15:31;;;;;;;0.00;0.00;;;8.50;70.70;;;;;;5039789;28;20048;-86
2023/03/26 08:18:18;;;;;;;0.00;0.00;;;8.40;57.30;;;;;;5040040;28;20051;-86
2023/03/26 08:20:57;;;;;;;0.00;0.00;;;8.40;60.60;;;;;;5057235;28;20052;-86
2023/03/26 08:23:33;;;;;;;0.15;0.15;;;8.40;63.10;;;;;;5056633;28;20048;-87
2023/03/26 08:26:20;;;;;;;2.65;0.75;;;8.50;65.70;;;;;;5056999;28;20056;-87
2023/03/26 08:29:07;;;;;;;1.55;0.63;;;8.60;68.70;;;;;;5040209;28;20048;-87
2023/03/26 08:31:40;;;;;;;0.00;0.00;;;8.60;67.40;;;;;;5040131;28;20053;-86
2023/03/26 08:34:08;;;;;;;0.00;0.00;;;8.60;60.10;;;;;;5057042;28;20385;-86
2023/03/26 08:36:34;;;;;;;6.13;1.35;;;8.70;55.50;;;;;;5039588;28;20053;-86
2023/03/26 08:39:00;;;;;;;0.00;0.00;;;8.70;61.30;;;;;;5039739;28;20048;-86
2023/03/26 08:41:28;;;;;;;0.57;0.32;;;8.70;54.80;;;;;;5038813;28;20036;-87
2023/03/26 08:44:35;;;;;;;0.00;0.00;;;8.60;50.70;;;;;;5039972;28;20397;-87
2023/03/26 08:47:04;;;;;;;0.80;0.28;;;8.50;48.40;;;;;;5056359;28;20041;-87
2023/03/26 08:49:35;;;;;;;0.00;0.00;;;8.50;47.80;;;;;;5056290;28;20482;-87
2023/03/26 08:52:39;;;;;;;0.00;0.00;;;8.60;56.10;;;;;;5056051;28;20133;-87
2023/03/26 08:55:37;;;;;;;0.00;0.00;;;8.60;50.50;;;;;;5032025;28;20496;-87
2023/03/26 08:58:24;;;;;;;1.95;0.03;;;8.60;41.30;;;;;;5039636;28;20056;-87
2023/03/26 09:01:18;;;;;;;0.20;0.20;;;8.60;41.60;;;;;;5055766;28;20041;-87
2023/03/26 09:04:11;;;;;;;0.20;0.20;;;8.60;25.80;;;;;;5038818;28;20044;-87
2023/03/26 09:06:57;;;;;;;1.55;0.75;;;8.60;21.60;;;;;;5039794;28;20076;-87
2023/03/26 09:09:44;;;;;;;2.25;0.65;;;8.60;16.60;;;;;;5056489;28;20381;-86
2023/03/26 09:12:36;;;;;;;0.00;0.00;;;8.70;13.60;;;;;;5056239;28;20053;-86
2023/03/26 09:15:23;;;;;;;0.00;0.00;;;8.70;1.70;;;;;;5034171;28;20056;-86
2023/03/26 09:18:25;;;;;;;0.65;0.57;;;8.70;1.00;;;;;;5040167;28;20045;-86
2023/03/26 09:21:08;;;;;;;0.00;0.00;;;8.70;1.00;;;;;;5003729;28;20041;-86
2023/03/26 09:23:56;;;;;;;0.00;0.00;;;8.80;1.00;;;;;;5037705;28;20059;-86
2023/03/26 09:26:28;;;;;;;0.05;0.00;;;8.90;1.00;;;;;;5039754;28;20127;-86
2023/03/26 09:29:14;;;;;;;1.08;0.00;;;9.00;1.00;;;;;;5045212;28;20053;-86
2023/03/26 09:32:10;;;;;;;0.55;0.15;;;9.00;1.00;;;;;;5065443;28;20079;-86
2023/03/26 09:35:10;;;;;;;0.00;0.00;;;9.10;1.00;;;;;;5075033;28;20041;-86
2023/03/26 09:37:42;;;;;;;0.10;0.08;;;9.00;1.00;;;;;;5049391;28;20041;-87
2023/03/26 09:40:19;;;;;;;1.05;0.55;;;9.10;1.00;;;;;;5038995;28;20044;-87
2023/03/26 09:43:01;;;;;;;0.00;0.00;;;9.10;1.00;;;;;;5022421;28;20094;-87
2023/03/26 09:45:41;;;;;;;0.00;0.00;;;9.00;1.00;;;;;;5056042;28;20134;-87
2023/03/26 09:48:26;;;;;;;0.00;0.00;;;9.00;1.00;;;;;;5038938;28;20047;-88
2023/03/26 09:51:28;;;;;;;0.00;0.00;;;9.20;1.00;;;;;;5055723;28;20570;-88
2023/03/26 09:54:23;;;;;;;0.00;0.00;;;9.30;1.00;;;;;;5039234;28;20053;-88
2023/03/26 09:57:08;;;;;;;0.00;0.00;;;9.40;1.00;;;;;;5060718;28;20080;-87
2023/03/26 09:59:52;;;;;;;0.00;0.00;;;9.60;1.00;;;;;;5038932;28;20103;-87
2023/03/26 10:02:26;;;;;;;0.00;0.00;;;9.80;1.00;;;;;;5039274;28;20045;-88
2023/03/26 10:05:23;;;;;;;0.15;0.15;;;9.80;1.00;;;;;;5039102;28;20057;-86
2023/03/26 10:08:01;;;;;;;1.45;0.70;;;9.70;99.90;;;;;;5038467;28;20037;-87
2023/03/26 10:10:53;;;;;;;0.32;0.22;;;9.60;99.90;;;;;;5044746;28;20049;-87
2023/03/26 10:13:22;;;;;;;0.00;0.00;;;9.70;99.90;;;;;;5039996;28;20424;-88
2023/03/26 10:16:12;;;;;;;3.53;0.90;;;9.80;99.90;;;;;;5056396;28;20080;-87
2023/03/26 10:19:03;;;;;;;0.00;0.00;;;9.70;99.90;;;;;;5039549;28;20045;-86
2023/03/26 10:21:43;;;;;;;0.13;0.05;;;9.70;28.80;;;;;;5039593;28;20060;-88
2023/03/26 10:24:09;;;;;;;0.00;0.00;;;9.60;1.00;;;;;;5039417;28;20094;-87
2023/03/26 10:27:06;;;;;;;0.00;0.00;;;9.70;99.90;;;;;;5038758;28;20052;-87
2023/03/26 10:29:56;;;;;;;0.28;0.28;;;9.80;99.90;;;;;;5054373;28;20045;-86
2023/03/26 10:33:05;;;;;;;0.20;0.20;;;9.90;99.90;;;;;;5038289;28;20051;-87
2023/03/26 10:35:43;;;;;;;0.00;0.00;;;9.90;99.90;;;;;;5037817;28;20133;-86
2023/03/26 10:38:30;;;;;;;2.65;0.52;;;10.00;99.90;;;;;;5038710;28;20398;-87
2023/03/26 10:41:11;;;;;;;0.08;0.00;;;10.10;99.90;;;;;;5037918;28;20496;-87
2023/03/26 10:44:08;;;;;;;0.00;0.00;;;10.20;94.80;;;;;;5037836;28;20099;-88
2023/03/26 10:46:40;;;;;;;0.00;0.00;;;10.20;91.00;;;;;;5054302;28;20051;-87
2023/03/26 10:49:16;;;;;;;0.30;0.30;;;10.30;1.00;;;;;;5037410;28;20048;-87
2023/03/26 10:52:00;;;;;;;0.00;0.00;;;10.30;99.90;;;;;;5055018;28;20040;-86
2023/03/26 10:54:35;;;;;;;0.00;0.00;;;10.30;99.90;;;;;;5038055;28;20045;-87
2023/03/26 10:57:11;;;;;;;1.95;0.38;;;10.40;99.90;;;;;;5037901;28;20048;-87
2023/03/26 10:59:37;;;;;;;0.35;0.35;;;10.50;99.90;;;;;;5037673;28;20135;-87
2023/03/26 11:02:27;;;;;;;0.00;0.00;;;10.60;99.90;;;;;;5037953;28;20099;-87
2023/03/26 11:05:30;;;;;;;0.40;0.40;;;10.70;99.90;;;;;;5054162;28;20049;-87
2023/03/26 11:08:07;;;;;;;0.00;0.00;;;10.80;99.90;;;;;;5037917;28;20397;-88
2023/03/26 11:10:51;;;;;;;0.00;0.00;;;11.10;99.90;;;;;;5054708;28;20521;-88
2023/03/26 11:13:28;;;;;;;27.07;1.37;;;11.10;1.00;;;;;;5053401;28;20045;-87
2023/03/26 11:16:08;;;;;;;0.00;0.00;;;11.20;1.00;;;;;;5053303;28;20144;-86
2023/03/26 11:18:43;;;;;;;0.03;0.03;;;11.00;1.00;;;;;;5054603;28;20084;-87
2023/03/26 11:21:34;;;;;;;0.40;0.30;;;10.80;1.00;;;;;;5037697;28;20040;-87
2023/03/26 11:24:03;;;;;;;0.00;0.00;;;10.40;1.00;;;;;;5038444;28;20440;-89
2023/03/26 11:26:37;;;;;;;5.13;1.63;;;10.20;8.20;;;;;;5038322;28;20048;-88
2023/03/26 11:29:17;;;;;;;0.00;0.00;;;10.00;99.90;;;;;;5038074;28;20098;-87
2023/03/26 11:31:55;;;;;;;0.00;0.00;;;9.90;1.00;;;;;;5038217;28;20051;-89
2023/03/26 11:34:32;;;;;;;2.08;1.27;;;9.90;28.60;;;;;;5037049;28;20041;-88
2023/03/26 11:37:03;;;;;;;5.15;0.55;;;9.90;99.90;;;;;;5037838;28;20084;-88
2023/03/26 11:39:48;;;;;;;1.02;0.00;;;9.90;8.50;;;;;;5037751;28;20053;-87
2023/03/26 11:42:14;;;;;;;;;;;10.00;99.90;;;;;;5055744;28;20472;-88
2023/03/26 11:44:59;;;;;;;0.70;0.10;;;9.90;69.60;;;;;;5057995;28;19920;-87
2023/03/26 11:47:34;;;;;;;0.00;0.00;;;10.00;1.00;;;;;;5041899;28;20037;-87
2023/03/26 11:50:02;;;;;;;0.00;0.00;;;10.00;1.00;;;;;;5058063;28;20059;-87
2023/03/26 11:52:30;;;;;;;0.00;0.00;;;9.90;99.90;;;;;;5058003;28;20048;-88
2023/03/26 11:54:58;;;;;;;0.30;0.30;;;10.00;72.50;;;;;;5057271;28;20128;-87
2023/03/26 11:57:32;;;;;;;0.10;0.00;;;10.00;1.00;;;;;;5025006;28;20080;-87
2023/03/26 12:00:16;;;;;;;0.00;0.00;;;10.10;99.90;;;;;;5041441;28;20040;-87
2023/03/26 12:02:45;;;;;;;0.00;0.00;;;10.10;99.90;;;;;;5057769;28;20072;-87
2023/03/26 12:05:20;;;;;;;7.03;0.10;;;10.20;99.90;;;;;;5056938;28;20087;-87
2023/03/26 12:07:52;;;;;;;0.13;0.13;;;10.10;27.10;;;;;;5056147;28;20053;-88
2023/03/26 12:10:37;;;;;;;0.00;0.00;;;10.10;99.90;;;;;;5040786;28;20057;-88
2023/03/26 12:13:18;;;;;;;;;;;10.10;27.90;;;;;;5057373;28;20403;-88
2023/03/26 12:15:50;;;;;;;0.43;0.43;;;10.00;99.90;;;;;;5056746;28;19920;-88
2023/03/26 12:18:24;;;;;;;11.80;0.75;;;10.10;99.90;;;;;;5040687;28;20048;-88
2023/03/26 12:21:03;;;;;;;0.00;0.00;;;10.10;99.90;;;;;;5040437;28;20053;-87
2023/03/26 12:23:58;;;;;;;0.10;0.10;;;10.10;99.90;;;;;;5041174;28;20051;-88
2023/03/26 12:26:43;;;;;;;0.00;0.00;;;10.30;99.90;;;;;;5057797;28;20381;-88
2023/03/26 12:29:14;;;;;;;0.10;0.10;;;10.40;99.90;;;;;;5056903;28;20052;-87
2023/03/26 12:31:46;;;;;;;0.60;0.40;;;10.60;99.90;;;;;;5040737;28;20048;-87
2023/03/26 12:34:18;;;;;;;0.00;0.00;;;10.80;99.90;;;;;;5056516;28;20061;-87
2023/03/26 12:36:51;;;;;;;0.00;0.00;;;11.00;1.00;;;;;;5056860;28;20377;-87
2023/03/26 12:39:31;;;;;;;1.27;0.93;;;11.10;99.90;;;;;;5040590;28;20062;-87
2023/03/26 12:41:59;;;;;;;0.10;0.08;;;11.20;99.90;;;;;;5039431;28;20049;-88
2023/03/26 12:44:27;;;;;;;0.00;0.00;;;11.20;99.90;;;;;;5039900;28;20110;-88
2023/03/26 12:47:07;;;;;;;0.00;0.00;;;11.10;99.90;;;;;;5039813;28;20051;-88
2023/03/26 12:49:43;;;;;;;0.00;0.00;;;11.00;99.90;;;;;;5056054;28;20207;-88
2023/03/26 12:52:22;;;;;;;0.73;0.35;;;11.00;99.90;;;;;;5056104;28;20044;-88
2023/03/26 12:55:19;;;;;;;0.00;0.00;;;10.90;99.90;;;;;;5039239;28;20053;-87
2023/03/26 12:58:30;;;;;;;0.08;0.08;;;11.00;99.90;;;;;;5022143;28;20503;-88
2023/03/26 13:01:07;;;;;;;0.00;0.00;;;10.90;99.90;;;;;;5038972;28;20174;-88
2023/03/26 13:03:57;;;;;;;0.00;0.00;;;10.80;99.90;;;;;;5056459;28;20103;-86
2023/03/26 13:06:40;;;;;;;0.00;0.00;;;11.00;99.90;;;;;;5055720;28;20041;-86
2023/03/26 13:09:36;;;;;;;0.10;0.10;;;11.00;99.90;;;;;;5040478;28;20048;-87
2023/03/26 13:12:14;;;;;;;0.00;0.00;;;11.00;46.90;;;;;;5055760;28;20060;-85
2023/03/26 13:15:07;;;;;;;0.10;0.10;;;11.10;99.90;;;;;;5055340;28;20052;-84
2023/03/26 13:17:42;;;;;;;1.45;0.57;;;11.00;99.90;;;;;;5038680;28;20385;-85
2023/03/26 13:20:32;;;;;;;0.28;0.28;;;10.90;99.90;;;;;;5055578;28;20049;-86
2023/03/26 13:23:22;;;;;;;0.10;0.00;;;10.80;99.90;;;;;;5038758;28;20488;-86
2023/03/26 13:26:09;;;;;;;0.00;0.00;;;10.70;40.30;;;;;;5038586;28;20102;-86
2023/03/26 13:28:47;;;;;;;0.77;0.08;;;10.60;64.30;;;;;;5055528;28;20041;-84
2023/03/26 13:31:18;;;;;;;0.00;0.00;;;10.50;99.90;;;;;;5038659;28;20056;-85
2023/03/26 13:34:32;;;;;;;0.00;0.00;;;10.50;99.90;;;;;;5038941;28;20491;-85